ADDS METAR Data INFO
IDs: Format: Raw Decoded Include TAF

Data at: 2010 UTC 19 Oct 2017

KOLY 191955Z AUTO 19003KT 10SM CLR 25/07 A3018 RMK AO2 T02500072
KOLY 191935Z AUTO 18007KT 10SM CLR 25/08 A3018 RMK AO2 T02490076
KOLY 191915Z AUTO 20003KT 10SM CLR 25/07 A3018 RMK AO2 T02450070
KOLY 191855Z AUTO 22004KT 10SM CLR 24/08 A3019 RMK AO2 T02430076
KOLY 191835Z AUTO 18005KT 10SM CLR 24/08 A3020 RMK AO2 T02380080
KOLY 191815Z AUTO 23003KT 10SM CLR 24/08 A3020 RMK AO2 T02410084
KOLY 191755Z AUTO 00000KT 10SM CLR 23/08 A3021 RMK AO2 T02280077 10230 20093
KOLY 191735Z AUTO 20004KT 10SM CLR 23/08 A3022 RMK AO2 T02250084
KOLY 191715Z AUTO 23004KT 10SM CLR 22/09 A3023 RMK AO2 T02240086
KOLY 191655Z AUTO 25003KT 10SM CLR 21/09 A3023 RMK AO2 T02140090
KOLY 191635Z AUTO 25006KT 10SM CLR 21/09 A3023 RMK AO2 T02070092
KOLY 191610Z AUTO 26005KT 10SM CLR 20/10 A3023 RMK AO2 T02000095
KOLY 191555Z AUTO 24005KT 10SM CLR 19/09 A3023 RMK AO2 T01930093
KOLY 191535Z AUTO 22005KT 10SM CLR 19/10 A3023 RMK AO2 T01870095
KOLY 191515Z AUTO 22004KT 10SM CLR 18/10 A3023 RMK AO2 T01770098
KOLY 191415Z AUTO 20004KT 10SM CLR 15/11 A3023 RMK AO2 T01460106
KOLY 191355Z AUTO 19005KT 10SM CLR 14/11 A3022 RMK AO2 T01350109
KOLY 191335Z AUTO 21003KT 10SM CLR 13/11 A3021 RMK AO2 T01260108
KOLY 191315Z AUTO 18005KT 10SM CLR 12/11 A3020 RMK AO2 T01170106
KOLY 191255Z AUTO 17004KT 10SM CLR 10/09 A3020 RMK AO2 T01040093
KOLY 191235Z AUTO 18004KT 10SM CLR 10/09 A3020 RMK AO2 T01000088
KOLY 191215Z AUTO 17005KT 10SM CLR 10/09 A3020 RMK AO2 T00960085
KOLY 191155Z AUTO 17004KT 10SM CLR 10/08 A3019 RMK AO2 T00950084 10116 20093
KOLY 191135Z AUTO 16003KT 10SM CLR 09/08 A3020 RMK AO2 T00940083
KOLY 191115Z AUTO 16004KT 10SM CLR 10/09 A3019 RMK AO2 T00970086
KOLY 191055Z AUTO 17004KT 10SM CLR 09/08 A3019 RMK AO2 T00940083
KOLY 191035Z AUTO 17004KT 10SM CLR 10/08 A3019 RMK AO2 T00950084
KOLY 191015Z AUTO 16004KT 10SM CLR 10/09 A3019 RMK AO2 T00950085
KOLY 190955Z AUTO 17004KT 10SM CLR 10/09 A3018 RMK AO2 T00960085
KOLY 190935Z AUTO 17004KT 10SM CLR 10/09 A3018 RMK AO2 T00990087
KOLY 190915Z AUTO 17004KT 10SM CLR 10/09 A3018 RMK AO2 T01010090
KOLY 190855Z AUTO 16003KT 10SM CLR 10/09 A3018 RMK AO2 T01020091
KOLY 190835Z AUTO 17003KT 10SM CLR 11/10 A3018 RMK AO2 T01050095
KOLY 190815Z AUTO 17003KT 10SM CLR 11/10 A3018 RMK AO2 T01070096
KOLY 190755Z AUTO 17003KT 10SM CLR 11/10 A3018 RMK AO2 T01110100
KOLY 190735Z AUTO 16003KT 10SM CLR 11/10 A3018 RMK AO2 T01080097
KOLY 190715Z AUTO 00000KT 10SM CLR 11/10 A3018 RMK AO2 T01130102
KOLY 190655Z AUTO 16003KT 10SM CLR 11/10 A3018 RMK AO2 T01070096
KOLY 190635Z AUTO 00000KT 10SM CLR 11/10 A3018 RMK AO2 T01100100
KOLY 190615Z AUTO 00000KT 10SM CLR 11/10 A3017 RMK AO2 T01140100
KOLY 190555Z AUTO 00000KT 10SM CLR 12/10 A3016 RMK AO2 T01150100 10158 20115 402200035
KOLY 190535Z AUTO 15003KT 10SM CLR 12/10 A3016 RMK AO2 T01160097
KOLY 190515Z AUTO 16003KT 10SM CLR 12/10 A3016 RMK AO2 T01210097
KOLY 190455Z AUTO 17004KT 10SM CLR 13/10 A3016 RMK AO2 T01250097
KOLY 190435Z AUTO 17005KT 10SM CLR 12/10 A3016 RMK AO2 T01220097
KOLY 190415Z AUTO 17004KT 10SM CLR 13/10 A3016 RMK AO2 T01250095
KOLY 190355Z AUTO 17005KT 10SM CLR 13/09 A3016 RMK AO2 T01270092
KOLY 190335Z AUTO 17004KT 10SM CLR 13/09 A3016 RMK AO2 T01270091
KOLY 190315Z AUTO 17005KT 10SM CLR 13/08 A3016 RMK AO2 T01260082
KOLY 190255Z AUTO 00000KT 10SM CLR 13/08 A3016 RMK AO2 T01330078
KOLY 190235Z AUTO 18004KT 10SM CLR 14/08 A3016 RMK AO2 T01400075
KOLY 190215Z AUTO 18004KT 10SM CLR 13/08 A3016 RMK AO2 T01300080
KOLY 190155Z AUTO 17004KT 10SM CLR 13/07 A3016 RMK AO2 T01310074
KOLY 190135Z AUTO 18004KT 10SM CLR 15/07 A3016 RMK AO2 T01490066
KOLY 190115Z AUTO 19003KT 10SM CLR 15/06 A3017 RMK AO2 T01530063
KOLY 190055Z AUTO 17005KT 10SM CLR 15/06 A3016 RMK AO2 T01470064
KOLY 190030Z AUTO 16005KT 10SM CLR 15/07 A3016 RMK AO2 T01500065
KOLY 190015Z AUTO 16005KT 10SM CLR 15/07 A3016 RMK AO2 T01510066
KOLY 182355Z AUTO 16005KT 10SM CLR 16/06 A3015 RMK AO2 T01590064 10220 20159
KOLY 182335Z AUTO 16005KT 10SM CLR 17/06 A3015 RMK AO2 T01690062
KOLY 182315Z AUTO 15006KT 10SM CLR 17/06 A3015 RMK AO2 T01720064
KOLY 182255Z AUTO 16006KT 10SM CLR 19/06 A3015 RMK AO2 T01900055
KOLY 182235Z AUTO 16008KT 10SM CLR 20/05 A3015 RMK AO2 T02010054
KOLY 182215Z AUTO 16010KT 10SM CLR 21/05 A3015 RMK AO2 T02100047
KOLY 182155Z AUTO 17009G15KT 10SM CLR 21/04 A3015 RMK AO2 T02130042
KOLY 182135Z AUTO 18011G15KT 10SM CLR 22/04 A3016 RMK AO2 T02160039
KOLY 182115Z AUTO 16009KT 10SM CLR 22/04 A3016 RMK AO2 T02170037
KOLY 182055Z AUTO 18009G15KT 10SM CLR 22/04 A3016 RMK AO2 T02150044
KOLY 182035Z AUTO 15012G17KT 10SM CLR 22/04 A3016 RMK AO2 T02180041
KOLY 182015Z AUTO 18008G14KT 10SM CLR 22/04 A3016 RMK AO2 T02160041
KOLY 181955Z AUTO 17010KT 10SM CLR 22/05 A3018 RMK AO2 T02180045
KOLY 181935Z AUTO 17011G17KT 10SM CLR 22/05 A3018 RMK AO2 T02180048
KOLY 181915Z AUTO 15010KT 10SM CLR 22/04 A3018 RMK AO2 T02150040
KOLY 181855Z AUTO 19007KT 10SM CLR 21/05 A3019 RMK AO2 T02100048
KOLY 181835Z AUTO 19008G14KT 10SM CLR 21/05 A3020 RMK AO2 T02100047
KOLY 181815Z AUTO 19008G15KT 10SM CLR 20/05 A3021 RMK AO2 T02040045
KOLY 181755Z AUTO 18011KT 10SM CLR 20/05 A3022 RMK AO2 T02010051 10201 20036
KOLY 181735Z AUTO 18010G17KT 10SM CLR 20/05 A3024 RMK AO2 T01970049
KOLY 181710Z AUTO 22006KT 170V250 10SM CLR 19/06 A3025 RMK AO2 T01930061
KOLY 181655Z AUTO 20007G14KT 10SM CLR 18/06 A3026 RMK AO2 T01830058
KOLY 181635Z AUTO 19005KT 10SM CLR 18/06 A3026 RMK AO2 T01810061
KOLY 181615Z AUTO 19007G15KT 10SM CLR 18/06 A3027 RMK AO2 T01830059
KOLY 181555Z AUTO 17008KT 10SM CLR 17/07 A3027 RMK AO2 T01720070
KOLY 181535Z AUTO 20005KT 10SM CLR 16/07 A3027 RMK AO2 T01600071
KOLY 181515Z AUTO 18005KT 10SM CLR 15/08 A3028 RMK AO2 T01520079
KOLY 181455Z AUTO 19006KT 10SM CLR 14/08 A3028 RMK AO2 T01420079
KOLY 181435Z AUTO 17006KT 10SM CLR 13/09 A3028 RMK AO2 T01300092
KOLY 181415Z AUTO 17005KT 10SM CLR 12/10 A3028 RMK AO2 T01150095
KOLY 181355Z AUTO 15003KT 10SM CLR 10/09 A3028 RMK AO2 T00990087
KOLY 181335Z AUTO 14003KT 10SM CLR 08/07 A3028 RMK AO2 T00830072
KOLY 181315Z AUTO 00000KT 10SM CLR 07/06 A3028 RMK AO2 T00680057
KOLY 181255Z AUTO 00000KT 10SM CLR 06/05 A3027 RMK AO2 T00560045
KOLY 181235Z AUTO 00000KT 10SM CLR 04/03 A3026 RMK AO2 T00430033
KOLY 181215Z AUTO 00000KT 10SM CLR 04/03 A3026 RMK AO2 T00400029
KOLY 181155Z AUTO 00000KT 5SM BR CLR 04/03 A3026 RMK AO2 T00360025 10063 20035
KOLY 181135Z AUTO 00000KT 10SM CLR 04/03 A3026 RMK AO2 T00360026
KOLY 181115Z AUTO 00000KT 10SM CLR 04/03 A3025 RMK AO2 T00390029
KOLY 181055Z AUTO 00000KT 10SM CLR 04/03 A3025 RMK AO2 T00420031
KOLY 181035Z AUTO 00000KT 10SM CLR 05/03 A3025 RMK AO2 T00450034
KOLY 181015Z AUTO 00000KT 10SM CLR 05/04 A3025 RMK AO2 T00450035
KOLY 180955Z AUTO 00000KT 10SM CLR 04/03 A3024 RMK AO2 T00430033
KOLY 180935Z AUTO 00000KT 10SM CLR 04/03 A3024 RMK AO2 T00420032
KOLY 180915Z AUTO 00000KT 10SM CLR 05/04 A3024 RMK AO2 T00480038
KOLY 180855Z AUTO 00000KT 10SM CLR 05/04 A3024 RMK AO2 T00480037
KOLY 180835Z AUTO 00000KT 10SM CLR 05/04 A3024 RMK AO2 T00510041
KOLY 180815Z AUTO 00000KT 10SM CLR 05/04 A3024 RMK AO2 T00510041